Time;durP1;ratioP1;P1;durP2;ratioP2;P2;SDS_P1;SDS_P2;PMS_P1;PMS_P2;Temp;Humidity;BMP_temperature;BMP_pressure;BME280_temperature;BME280_humidity;BME280_pressure;Samples;Min_cycle;Max_cycle;Signal;HPM_P1;HPM_P2
2021/09/20 00:01:08;;;;;;;16.37;14.73;;;12.60;99.90;;;;;;5030415;28;20175;-64
2021/09/20 00:03:34;;;;;;;15.90;14.30;;;12.60;99.90;;;;;;5017351;28;20195;-63
2021/09/20 00:06:00;;;;;;;14.77;13.47;;;12.60;99.90;;;;;;5024466;28;20203;-63
2021/09/20 00:08:25;;;;;;;14.10;13.00;;;12.60;99.90;;;;;;5030862;28;20222;-63
2021/09/20 00:10:51;;;;;;;15.03;13.63;;;12.60;99.90;;;;;;5030771;28;20335;-64
2021/09/20 00:13:17;;;;;;;14.40;13.10;;;12.60;99.90;;;;;;5030603;28;20233;-63
2021/09/20 00:15:42;;;;;;;15.37;13.97;;;12.60;99.90;;;;;;5031492;28;20207;-63
2021/09/20 00:18:08;;;;;;;14.63;13.30;;;12.50;99.90;;;;;;5034560;28;20172;-63
2021/09/20 00:20:33;;;;;;;14.63;13.43;;;12.50;99.90;;;;;;5034195;28;20190;-63
2021/09/20 00:22:59;;;;;;;14.93;13.43;;;12.40;99.90;;;;;;5034261;28;20258;-64
2021/09/20 00:25:25;;;;;;;16.00;13.90;;;12.40;99.90;;;;;;5034226;28;20680;-65
2021/09/20 00:27:50;;;;;;;15.87;14.47;;;12.30;99.90;;;;;;5033066;28;20270;-65
2021/09/20 00:30:16;;;;;;;15.80;14.27;;;12.20;99.90;;;;;;5034180;28;20182;-65
2021/09/20 00:32:42;;;;;;;17.07;15.57;;;12.20;99.90;;;;;;5034606;28;20196;-65
2021/09/20 00:35:08;;;;;;;21.60;14.57;;;12.10;99.90;;;;;;5034009;28;20176;-65
2021/09/20 00:37:34;;;;;;;15.67;14.23;;;12.10;99.90;;;;;;5034203;28;20252;-64
2021/09/20 00:40:00;;;;;;;16.30;14.50;;;12.00;99.90;;;;;;5034058;28;20187;-63
2021/09/20 00:42:25;;;;;;;17.57;14.87;;;12.00;99.90;;;;;;5034437;28;20171;-65
2021/09/20 00:44:51;;;;;;;14.53;13.33;;;11.90;99.90;;;;;;5034141;28;20919;-66
2021/09/20 00:47:16;;;;;;;16.63;15.00;;;12.00;99.90;;;;;;5034350;28;20168;-65
2021/09/20 00:49:45;;;;;;;16.37;14.87;;;11.90;99.90;;;;;;5033547;28;20171;-64
2021/09/20 00:52:11;;;;;;;15.43;14.13;;;11.80;99.90;;;;;;5034210;28;20177;-64
2021/09/20 00:54:36;;;;;;;15.37;14.07;;;11.80;99.90;;;;;;5034202;28;20250;-64
2021/09/20 00:57:03;;;;;;;15.73;14.33;;;11.80;99.90;;;;;;5033711;28;20199;-64
2021/09/20 00:59:29;;;;;;;16.47;14.90;;;11.80;99.90;;;;;;5033493;28;20222;-65
2021/09/20 01:01:54;;;;;;;15.73;14.33;;;11.80;99.90;;;;;;5033868;28;20175;-65
2021/09/20 01:04:20;;;;;;;16.37;14.97;;;11.80;99.90;;;;;;5034047;28;20249;-64
2021/09/20 01:06:46;;;;;;;17.73;16.13;;;11.70;99.90;;;;;;5033329;28;20286;-63
2021/09/20 01:09:12;;;;;;;17.90;16.20;;;11.70;99.90;;;;;;5033938;28;20197;-64
2021/09/20 01:11:38;;;;;;;16.53;15.03;;;11.60;99.90;;;;;;5033517;28;20548;-64
2021/09/20 01:14:04;;;;;;;16.13;14.67;;;11.60;99.90;;;;;;5033850;28;20179;-64
2021/09/20 01:16:29;;;;;;;18.13;16.43;;;11.60;99.90;;;;;;5033423;28;20211;-66
2021/09/20 01:18:55;;;;;;;17.23;15.63;;;11.60;99.90;;;;;;5033573;28;20217;-64
2021/09/20 01:21:21;;;;;;;17.10;15.37;;;11.50;99.90;;;;;;5033188;28;20545;-65
2021/09/20 01:23:46;;;;;;;17.67;15.90;;;11.50;99.90;;;;;;5032977;28;20188;-64
2021/09/20 01:26:13;;;;;;;18.10;16.47;;;11.40;99.90;;;;;;5033080;28;20289;-64
2021/09/20 01:28:39;;;;;;;17.73;15.93;;;11.40;99.90;;;;;;5033494;28;20167;-64
2021/09/20 01:31:05;;;;;;;19.17;17.47;;;11.30;99.90;;;;;;5032964;28;20258;-65
2021/09/20 01:33:31;;;;;;;18.33;16.63;;;11.30;99.90;;;;;;5032746;28;20321;-65
2021/09/20 01:35:57;;;;;;;19.00;17.20;;;11.20;99.90;;;;;;5033249;28;20294;-66
2021/09/20 01:38:22;;;;;;;19.00;17.20;;;11.30;99.90;;;;;;5033204;28;20178;-66
2021/09/20 01:40:48;;;;;;;19.30;17.20;;;11.20;99.90;;;;;;5032435;28;20525;-65
2021/09/20 01:43:14;;;;;;;17.63;16.03;;;11.20;99.90;;;;;;5032589;28;20245;-64
2021/09/20 01:45:40;;;;;;;18.73;16.93;;;11.20;99.90;;;;;;5032515;28;20212;-66
2021/09/20 01:48:05;;;;;;;17.23;15.73;;;11.20;99.90;;;;;;5032956;28;20182;-65
2021/09/20 01:50:31;;;;;;;18.60;17.00;;;11.20;99.90;;;;;;5031760;28;20213;-64
2021/09/20 01:52:57;;;;;;;19.17;17.27;;;11.20;99.90;;;;;;5032684;28;20180;-64
2021/09/20 01:55:23;;;;;;;18.03;16.33;;;11.10;99.90;;;;;;5032341;28;20207;-64
2021/09/20 01:57:49;;;;;;;18.33;16.47;;;11.10;99.90;;;;;;5032623;28;20183;-66
2021/09/20 02:00:16;;;;;;;18.47;16.63;;;11.00;99.90;;;;;;5031991;28;20233;-64
2021/09/20 02:02:42;;;;;;;18.20;16.50;;;11.00;99.90;;;;;;5032942;28;20187;-64
2021/09/20 02:05:08;;;;;;;19.63;17.57;;;11.00;99.90;;;;;;5032193;28;20199;-65
2021/09/20 02:07:35;;;;;;;18.60;16.90;;;10.90;99.90;;;;;;5032648;28;20258;-65
2021/09/20 02:10:02;;;;;;;18.73;17.00;;;10.90;99.90;;;;;;5032280;28;20175;-64
2021/09/20 02:12:29;;;;;;;18.83;16.87;;;10.90;99.90;;;;;;5032724;28;20211;-65
2021/09/20 02:14:54;;;;;;;21.20;19.13;;;10.90;99.90;;;;;;5031761;28;20191;-66
2021/09/20 02:17:20;;;;;;;21.30;18.27;;;10.80;99.90;;;;;;5032323;28;20195;-65
2021/09/20 02:19:45;;;;;;;20.10;18.17;;;10.70;99.90;;;;;;5032069;28;20280;-65
2021/09/20 02:22:11;;;;;;;20.90;18.80;;;10.70;99.90;;;;;;5032450;28;20310;-63
2021/09/20 02:24:37;;;;;;;20.53;18.57;;;10.70;99.90;;;;;;5032017;28;20657;-65
2021/09/20 02:27:02;;;;;;;20.90;18.77;;;10.70;99.90;;;;;;5032083;28;20195;-65
2021/09/20 02:29:28;;;;;;;20.10;18.10;;;10.70;99.90;;;;;;5030825;28;20254;-65
2021/09/20 02:31:53;;;;;;;22.37;20.07;;;10.70;99.90;;;;;;5032006;28;20547;-64
2021/09/20 02:34:20;;;;;;;21.73;19.40;;;10.60;99.90;;;;;;5032034;28;20529;-66
2021/09/20 02:36:46;;;;;;;20.40;18.33;;;10.60;99.90;;;;;;5032219;28;20187;-65
2021/09/20 02:39:11;;;;;;;21.97;19.67;;;10.50;99.90;;;;;;5031100;28;20570;-64
2021/09/20 02:41:38;;;;;;;22.00;19.73;;;10.50;99.90;;;;;;5031823;28;20187;-64
2021/09/20 02:44:04;;;;;;;22.27;20.07;;;10.40;99.90;;;;;;5031707;28;20207;-66
2021/09/20 02:46:30;;;;;;;23.27;20.00;;;10.30;99.90;;;;;;5032286;28;20706;-65
2021/09/20 02:48:56;;;;;;;22.10;19.93;;;10.30;99.90;;;;;;5032178;28;20174;-65
2021/09/20 02:51:21;;;;;;;25.87;20.47;;;10.30;99.90;;;;;;5031527;28;20262;-65
2021/09/20 02:53:47;;;;;;;21.87;19.63;;;10.40;99.90;;;;;;5031969;28;20163;-64
2021/09/20 02:56:13;;;;;;;22.50;20.10;;;10.40;99.90;;;;;;5031857;28;20244;-66
2021/09/20 02:58:39;;;;;;;22.90;20.50;;;10.30;99.90;;;;;;5031600;28;20189;-64
2021/09/20 03:01:04;;;;;;;28.67;20.13;;;10.30;99.90;;;;;;5031392;28;20182;-64
2021/09/20 03:03:30;;;;;;;24.63;20.80;;;10.30;99.90;;;;;;5031618;28;20276;-64
2021/09/20 03:05:56;;;;;;;23.07;19.97;;;10.30;99.90;;;;;;5031682;28;20206;-64
2021/09/20 03:08:21;;;;;;;24.40;21.67;;;10.30;99.90;;;;;;5031599;28;20180;-65
2021/09/20 03:10:47;;;;;;;22.83;20.20;;;10.30;99.90;;;;;;5031322;28;20237;-66
2021/09/20 03:13:13;;;;;;;26.13;22.13;;;10.30;99.90;;;;;;5031674;28;20172;-64
2021/09/20 03:15:38;;;;;;;24.80;22.10;;;10.20;99.90;;;;;;5031260;28;20687;-65
2021/09/20 03:18:04;;;;;;;25.47;22.13;;;10.20;99.90;;;;;;5031629;28;20201;-64
2021/09/20 03:20:30;;;;;;;28.17;22.87;;;10.00;99.90;;;;;;5031053;28;20191;-64
2021/09/20 03:22:55;;;;;;;26.33;21.97;;;10.10;99.90;;;;;;5031349;28;20178;-64
2021/09/20 03:25:22;;;;;;;24.10;20.57;;;10.00;99.90;;;;;;5031616;28;20479;-64
2021/09/20 03:27:48;;;;;;;25.57;21.37;;;10.00;99.90;;;;;;5030875;28;20176;-64
2021/09/20 03:30:15;;;;;;;28.30;23.17;;;9.90;99.90;;;;;;5029896;28;20168;-64
2021/09/20 03:32:41;;;;;;;27.87;22.57;;;10.00;99.90;;;;;;5031562;28;20179;-64
2021/09/20 03:35:08;;;;;;;26.23;22.80;;;9.90;99.90;;;;;;5031205;28;20183;-64
2021/09/20 03:37:34;;;;;;;30.07;23.00;;;9.90;99.90;;;;;;5031502;28;20171;-64
2021/09/20 03:40:00;;;;;;;26.83;23.93;;;9.90;99.90;;;;;;5030995;28;20199;-64
2021/09/20 03:42:26;;;;;;;27.00;22.90;;;9.80;99.90;;;;;;5031398;28;20172;-66
2021/09/20 03:44:51;;;;;;;24.57;21.27;;;9.80;99.90;;;;;;5031120;28;20207;-64
2021/09/20 03:47:17;;;;;;;25.63;22.23;;;9.90;99.90;;;;;;5031015;28;20175;-64
2021/09/20 03:49:43;;;;;;;24.90;21.37;;;9.80;99.90;;;;;;5030803;28;20184;-64
2021/09/20 03:52:08;;;;;;;24.50;21.90;;;9.80;99.90;;;;;;5034511;28;20171;-64
2021/09/20 03:54:34;;;;;;;24.67;21.63;;;9.80;99.90;;;;;;5034940;28;20183;-65
2021/09/20 03:57:00;;;;;;;22.57;20.17;;;9.80;99.90;;;;;;5035175;28;20268;-65
2021/09/20 03:59:26;;;;;;;26.57;21.50;;;9.80;99.90;;;;;;5034717;28;20554;-64
2021/09/20 04:01:51;;;;;;;25.50;22.80;;;9.80;99.90;;;;;;5035252;28;20225;-65
2021/09/20 04:04:17;;;;;;;27.57;21.47;;;9.70;99.90;;;;;;5034865;28;20653;-65
2021/09/20 04:06:43;;;;;;;25.17;21.73;;;9.70;99.90;;;;;;5034995;28;20211;-63
2021/09/20 04:09:09;;;;;;;25.90;23.10;;;9.70;99.90;;;;;;5034608;28;20761;-65
2021/09/20 04:11:40;;;;;;;27.10;23.57;;;9.70;99.90;;;;;;5034833;28;20171;-64
2021/09/20 04:14:06;;;;;;;29.23;22.83;;;9.60;99.90;;;;;;5034721;28;20175;-65
2021/09/20 04:16:31;;;;;;;30.07;22.80;;;9.70;99.90;;;;;;5025474;28;20226;-65
2021/09/20 04:18:57;;;;;;;29.00;23.10;;;9.70;99.90;;;;;;5034777;28;20199;-66
2021/09/20 04:21:22;;;;;;;26.33;23.47;;;9.60;99.90;;;;;;5034492;28;20176;-65
2021/09/20 04:23:48;;;;;;;28.07;23.43;;;9.60;99.90;;;;;;5034443;28;20187;-65
2021/09/20 04:26:15;;;;;;;27.13;22.80;;;9.60;99.90;;;;;;5034481;28;20191;-65
2021/09/20 04:28:40;;;;;;;27.27;23.70;;;9.60;99.90;;;;;;5034393;28;20183;-65
2021/09/20 04:31:06;;;;;;;28.97;23.07;;;9.60;99.90;;;;;;5033970;28;20180;-64
2021/09/20 04:33:31;;;;;;;29.60;23.87;;;9.60;99.90;;;;;;5034571;28;20179;-65
2021/09/20 04:35:57;;;;;;;28.23;22.53;;;9.60;99.90;;;;;;5033990;28;20195;-64
2021/09/20 04:38:23;;;;;;;26.43;23.50;;;9.50;99.90;;;;;;5034078;28;20175;-64
2021/09/20 04:40:49;;;;;;;28.90;22.90;;;9.50;99.90;;;;;;5034267;28;20176;-66
2021/09/20 04:43:15;;;;;;;30.00;24.70;;;9.50;99.90;;;;;;5033695;28;20179;-65
2021/09/20 04:45:42;;;;;;;31.27;24.40;;;9.50;99.90;;;;;;5034010;28;20199;-64
2021/09/20 04:48:10;;;;;;;29.33;24.57;;;9.50;99.90;;;;;;5033810;28;20258;-64
2021/09/20 04:50:41;;;;;;;32.30;24.07;;;9.40;99.90;;;;;;5033894;28;20229;-64
2021/09/20 04:53:08;;;;;;;31.20;23.67;;;9.40;99.90;;;;;;5033619;28;20225;-64
2021/09/20 04:55:33;;;;;;;32.23;24.57;;;9.30;99.90;;;;;;5033490;28;20568;-65
2021/09/20 04:58:03;;;;;;;36.03;25.47;;;9.40;99.90;;;;;;5033921;28;20190;-64
2021/09/20 05:00:29;;;;;;;34.30;25.53;;;9.40;99.90;;;;;;5033283;28;20238;-63
2021/09/20 05:02:55;;;;;;;33.63;26.80;;;9.40;99.90;;;;;;5033493;28;20175;-64
2021/09/20 05:05:20;;;;;;;33.10;27.30;;;9.40;99.90;;;;;;5033596;28;20287;-65
2021/09/20 05:07:46;;;;;;;33.57;25.93;;;9.50;99.90;;;;;;5033942;28;20718;-64
2021/09/20 05:10:12;;;;;;;35.63;27.20;;;9.50;99.90;;;;;;5033178;28;20206;-65
2021/09/20 05:12:38;;;;;;;36.43;27.23;;;9.40;99.90;;;;;;5033728;28;20171;-65
2021/09/20 05:15:04;;;;;;;35.43;25.97;;;9.50;99.90;;;;;;5033368;28;20224;-64
2021/09/20 05:17:29;;;;;;;34.80;24.20;;;9.40;99.90;;;;;;5087742;22;20218;-63
2021/09/20 05:19:55;;;;;;;38.80;27.03;;;9.50;99.90;;;;;;5053306;28;20632;-63
2021/09/20 05:22:20;;;;;;;38.70;27.30;;;9.50;99.90;;;;;;5047326;28;20247;-63
2021/09/20 05:24:46;;;;;;;37.87;27.33;;;9.50;99.90;;;;;;5033348;28;20211;-63
2021/09/20 05:27:11;;;;;;;38.50;26.77;;;9.50;99.90;;;;;;5037157;28;20195;-63
2021/09/20 05:29:37;;;;;;;40.43;26.83;;;9.50;99.90;;;;;;5047994;28;20175;-63
2021/09/20 05:32:03;;;;;;;33.83;25.20;;;9.60;99.90;;;;;;5050807;28;20679;-63
2021/09/20 05:34:29;;;;;;;37.83;28.00;;;9.60;99.90;;;;;;5044519;28;20178;-63
2021/09/20 05:36:55;;;;;;;37.77;26.73;;;9.60;99.90;;;;;;5051347;28;20326;-63
2021/09/20 05:39:21;;;;;;;35.37;28.13;;;9.60;99.90;;;;;;5046477;28;20258;-63
2021/09/20 05:41:46;;;;;;;33.43;27.20;;;9.70;99.90;;;;;;5052992;28;20179;-63
2021/09/20 05:44:12;;;;;;;38.13;27.93;;;9.70;99.90;;;;;;5053161;28;20222;-63
2021/09/20 05:46:37;;;;;;;37.47;27.10;;;9.80;99.90;;;;;;5034125;28;20198;-63
2021/09/20 05:49:03;;;;;;;37.40;28.43;;;9.90;99.90;;;;;;5042602;28;20194;-63
2021/09/20 05:51:29;;;;;;;40.00;26.33;;;10.00;99.90;;;;;;5032097;28;20229;-62
2021/09/20 05:53:54;;;;;;;33.50;25.40;;;10.00;99.90;;;;;;5040587;28;20179;-63
2021/09/20 05:56:20;;;;;;;40.57;28.60;;;10.10;99.90;;;;;;5035877;28;20238;-65
2021/09/20 05:58:46;;;;;;;33.33;26.03;;;10.30;99.90;;;;;;5040204;28;20183;-63
2021/09/20 06:01:11;;;;;;;35.67;23.67;;;10.40;99.90;;;;;;5041544;28;20183;-63
2021/09/20 06:03:37;;;;;;;27.57;23.53;;;10.50;99.90;;;;;;5032439;28;20247;-63
2021/09/20 06:06:03;;;;;;;29.83;22.40;;;10.60;99.90;;;;;;5046468;28;20211;-63
2021/09/20 06:08:29;;;;;;;26.67;22.63;;;10.70;99.90;;;;;;5052396;28;20179;-63
2021/09/20 06:10:54;;;;;;;24.50;21.23;;;10.80;99.90;;;;;;5039148;28;20171;-63
2021/09/20 06:13:20;;;;;;;23.00;20.70;;;11.00;99.90;;;;;;5036423;28;20305;-63
2021/09/20 06:15:45;;;;;;;22.73;20.30;;;11.10;99.90;;;;;;5049530;28;20206;-63
2021/09/20 06:18:11;;;;;;;22.03;19.27;;;11.20;99.90;;;;;;5048280;28;20171;-62
2021/09/20 06:20:37;;;;;;;21.87;19.50;;;11.40;99.90;;;;;;5031922;28;20708;-63
2021/09/20 06:23:03;;;;;;;20.80;18.60;;;11.50;99.90;;;;;;5032299;28;20202;-63
2021/09/20 06:25:29;;;;;;;20.43;18.43;;;11.70;99.90;;;;;;5033320;28;20203;-63
2021/09/20 06:27:54;;;;;;;23.23;18.47;;;11.80;99.90;;;;;;5052137;28;20168;-63
2021/09/20 06:30:20;;;;;;;19.03;17.33;;;12.00;99.90;;;;;;5051943;28;20268;-63
2021/09/20 06:32:46;;;;;;;19.40;17.33;;;12.20;99.90;;;;;;5032234;28;20172;-63
2021/09/20 06:35:12;;;;;;;19.07;17.33;;;12.30;99.90;;;;;;5031919;28;20259;-63
2021/09/20 06:37:38;;;;;;;18.47;16.50;;;12.40;99.90;;;;;;5049681;28;20645;-63
2021/09/20 06:40:05;;;;;;;20.37;17.03;;;12.60;99.90;;;;;;5043413;28;20190;-64
2021/09/20 06:42:30;;;;;;;18.03;16.50;;;12.80;99.90;;;;;;5039448;28;20266;-64
2021/09/20 06:44:56;;;;;;;17.47;15.87;;;12.90;99.90;;;;;;5044389;28;20290;-62
2021/09/20 06:47:22;;;;;;;16.90;15.30;;;13.00;99.90;;;;;;5030961;28;20404;-64
2021/09/20 06:49:48;;;;;;;17.00;15.37;;;13.20;99.90;;;;;;5036196;28;20175;-64
2021/09/20 06:52:15;;;;;;;16.20;14.67;;;13.40;99.90;;;;;;5051877;28;20240;-64
2021/09/20 06:54:41;;;;;;;16.47;14.97;;;13.50;99.90;;;;;;5049777;28;20179;-67
2021/09/20 06:57:07;;;;;;;16.77;15.27;;;13.60;99.90;;;;;;5040068;28;20202;-63
2021/09/20 06:59:33;;;;;;;23.33;16.87;;;13.70;99.90;;;;;;5040474;28;20187;-64
2021/09/20 07:01:59;;;;;;;17.07;15.07;;;13.80;99.90;;;;;;5031907;28;20179;-64
2021/09/20 07:04:24;;;;;;;15.67;14.17;;;14.00;99.90;;;;;;5050071;28;20195;-64
2021/09/20 07:06:50;;;;;;;15.37;14.07;;;14.20;99.90;;;;;;5051323;28;20195;-64
2021/09/20 07:09:16;;;;;;;17.43;15.17;;;14.30;99.90;;;;;;5032166;28;20302;-64
2021/09/20 07:11:42;;;;;;;15.50;13.93;;;14.50;99.90;;;;;;5031425;28;20179;-63
2021/09/20 07:14:08;;;;;;;14.40;12.83;;;14.50;99.90;;;;;;5048350;28;20178;-63
2021/09/20 07:16:35;;;;;;;14.20;13.00;;;14.80;99.90;;;;;;5051112;28;20210;-63
2021/09/20 07:19:01;;;;;;;14.07;12.70;;;14.90;99.90;;;;;;5038488;28;20175;-64
2021/09/20 07:21:27;;;;;;;13.63;10.87;;;15.00;99.90;;;;;;5051193;28;20181;-63
2021/09/20 07:23:54;;;;;;;12.10;11.13;;;15.00;99.90;;;;;;5037069;28;20277;-63
2021/09/20 07:26:21;;;;;;;12.37;11.37;;;14.90;99.90;;;;;;5031421;28;20187;-63
2021/09/20 07:28:47;;;;;;;11.80;10.67;;;14.90;99.90;;;;;;5043482;28;20191;-63
2021/09/20 07:31:13;;;;;;;11.83;10.80;;;14.90;99.90;;;;;;5051109;28;20175;-63
2021/09/20 07:33:38;;;;;;;12.27;11.33;;;15.00;99.90;;;;;;5040152;28;20699;-62
2021/09/20 07:36:04;;;;;;;11.40;10.30;;;15.00;99.90;;;;;;5030084;28;20191;-63
2021/09/20 07:38:30;;;;;;;10.80;9.70;;;15.10;99.90;;;;;;5040328;28;20175;-63
2021/09/20 07:40:56;;;;;;;10.73;9.80;;;15.40;99.90;;;;;;5050332;28;20175;-64
2021/09/20 07:43:23;;;;;;;11.37;10.20;;;15.60;99.90;;;;;;5048947;28;20181;-64
2021/09/20 07:45:49;;;;;;;11.60;9.77;;;15.70;99.90;;;;;;5050015;28;20372;-64
2021/09/20 07:48:15;;;;;;;10.80;9.93;;;15.80;99.90;;;;;;5045149;28;20776;-64
2021/09/20 07:50:40;;;;;;;10.60;9.80;;;15.90;99.90;;;;;;5047991;28;20175;-64
2021/09/20 07:53:06;;;;;;;10.83;9.83;;;16.10;99.90;;;;;;5046517;28;20190;-63
2021/09/20 07:55:35;;;;;;;10.10;9.37;;;16.30;99.90;;;;;;5031243;28;20540;-64
2021/09/20 07:58:08;;;;;;;10.67;9.53;;;16.40;99.90;;;;;;5033929;28;20186;-63
2021/09/20 08:00:37;;;;;;;11.47;10.37;;;16.70;99.90;;;;;;5050905;28;20174;-63
2021/09/20 08:03:06;;;;;;;10.33;9.53;;;16.80;99.90;;;;;;5048431;28;20551;-64
2021/09/20 08:05:33;;;;;;;10.33;9.43;;;17.20;99.90;;;;;;5030695;28;20202;-63
2021/09/20 08:07:59;;;;;;;9.53;8.83;;;17.60;99.90;;;;;;5031432;28;20174;-63
2021/09/20 08:10:24;;;;;;;9.97;9.00;;;18.00;99.90;;;;;;5049455;28;20175;-64
2021/09/20 08:12:50;;;;;;;9.67;8.83;;;18.50;99.90;;;;;;5050798;28;20206;-64
2021/09/20 08:15:16;;;;;;;9.70;8.90;;;19.00;99.90;;;;;;5031005;28;20184;-64
2021/09/20 08:17:42;;;;;;;9.47;8.67;;;19.10;99.90;;;;;;5039168;28;20215;-63
2021/09/20 08:20:09;;;;;;;9.10;8.30;;;19.30;99.90;;;;;;5050580;28;20182;-64
2021/09/20 08:22:34;;;;;;;9.30;8.60;;;19.30;99.90;;;;;;5043428;28;20184;-64
2021/09/20 08:25:00;;;;;;;9.50;8.70;;;19.30;99.90;;;;;;5030906;28;20214;-63
2021/09/20 08:27:26;;;;;;;9.33;8.53;;;19.50;99.90;;;;;;5035895;28;20190;-64
2021/09/20 08:29:52;;;;;;;9.00;8.18;;;19.70;99.90;;;;;;5050385;28;20540;-64
2021/09/20 08:32:20;;;;;;;10.52;9.68;;;19.80;99.90;;;;;;5046586;28;20171;-64
2021/09/20 08:34:46;;;;;;;8.93;8.23;;;20.10;99.90;;;;;;5044620;28;20182;-64
2021/09/20 08:37:13;;;;;;;9.07;8.17;;;20.20;99.90;;;;;;5047818;28;20206;-63
2021/09/20 08:39:39;;;;;;;8.93;8.02;;;20.20;99.90;;;;;;5034133;28;20649;-64
2021/09/20 08:42:05;;;;;;;10.13;9.03;;;20.30;99.90;;;;;;5046590;28;20175;-64
2021/09/20 08:44:31;;;;;;;9.57;8.77;;;20.20;99.90;;;;;;5053993;28;20191;-64
2021/09/20 08:46:57;;;;;;;9.30;8.50;;;20.10;99.90;;;;;;5035505;28;20534;-64
2021/09/20 08:49:25;;;;;;;9.93;9.13;;;20.10;99.90;;;;;;5033724;28;20206;-64
2021/09/20 08:51:55;;;;;;;9.07;8.48;;;20.00;99.90;;;;;;5050780;28;20183;-64
2021/09/20 08:54:26;;;;;;;9.35;8.38;;;20.10;99.90;;;;;;5054052;28;20191;-63
2021/09/20 08:56:52;;;;;;;9.30;8.50;;;20.10;99.90;;;;;;5037235;28;20206;-64
2021/09/20 08:59:19;;;;;;;10.48;9.77;;;20.00;99.90;;;;;;5033598;28;20171;-64
2021/09/20 09:01:48;;;;;;;10.20;9.27;;;19.80;99.90;;;;;;5048472;28;20189;-64
2021/09/20 09:04:27;;;;;;;8.90;8.20;;;20.00;99.90;;;;;;5053774;28;20175;-64
2021/09/20 09:07:05;;;;;;;13.13;8.75;;;20.40;99.90;;;;;;5037935;28;20566;-64
2021/09/20 09:09:32;;;;;;;8.48;7.78;;;20.80;99.90;;;;;;5033257;28;20168;-64
2021/09/20 09:12:29;;;;;;;8.57;7.90;;;21.20;99.90;;;;;;5049199;28;20236;-64
2021/09/20 09:14:56;;;;;;;8.32;7.70;;;21.30;99.90;;;;;;5027874;28;20238;-64
2021/09/20 09:17:25;;;;;;;8.68;8.00;;;21.20;99.90;;;;;;5034454;28;20219;-64
2021/09/20 09:19:53;;;;;;;8.48;7.80;;;21.20;99.90;;;;;;5032579;28;20302;-64
2021/09/20 09:22:19;;;;;;;8.60;7.93;;;21.00;99.90;;;;;;5038188;28;20648;-64
2021/09/20 09:25:03;;;;;;;9.38;7.93;;;21.20;99.90;;;;;;5053248;28;20206;-64
2021/09/20 09:27:30;;;;;;;8.32;7.72;;;21.50;99.90;;;;;;5044657;28;20657;-64
2021/09/20 09:30:09;;;;;;;8.55;7.75;;;21.80;99.90;;;;;;5033003;28;20637;-64
2021/09/20 09:32:35;;;;;;;9.00;8.10;;;21.90;99.90;;;;;;5039028;28;20662;-64
2021/09/20 09:35:03;;;;;;;7.88;7.30;;;22.30;99.90;;;;;;5053324;28;20183;-64
2021/09/20 09:37:33;;;;;;;8.60;7.80;;;22.30;99.90;;;;;;5047450;28;20191;-64
2021/09/20 09:40:19;;;;;;;9.27;8.10;;;22.00;99.90;;;;;;5032943;28;20668;-64
2021/09/20 09:42:46;;;;;;;7.97;7.38;;;22.10;99.90;;;;;;5038932;28;20253;-64
2021/09/20 09:45:18;;;;;;;8.57;7.78;;;22.20;99.90;;;;;;5048876;28;20230;-65
2021/09/20 09:47:43;;;;;;;9.27;8.32;;;21.80;99.90;;;;;;5032895;28;20563;-64
2021/09/20 09:50:23;;;;;;;7.82;7.32;;;21.30;99.90;;;;;;5035328;28;20171;-64
2021/09/20 09:52:52;;;;;;;8.65;7.85;;;21.10;99.90;;;;;;5052821;28;20600;-64
2021/09/20 09:55:20;;;;;;;8.15;7.38;;;20.90;99.90;;;;;;5049061;28;20178;-63
2021/09/20 09:57:48;;;;;;;8.73;8.13;;;20.90;99.90;;;;;;5032906;28;20257;-64
2021/09/20 10:00:16;;;;;;;8.50;7.80;;;20.90;99.90;;;;;;5032985;28;20475;-64
2021/09/20 10:02:47;;;;;;;8.88;7.88;;;21.00;99.90;;;;;;5052517;28;20465;-64
2021/09/20 10:05:16;;;;;;;8.82;8.13;;;21.20;99.90;;;;;;5051171;28;20368;-64
2021/09/20 10:07:45;;;;;;;8.32;7.53;;;21.50;99.90;;;;;;5032252;28;20325;-64
2021/09/20 10:10:17;;;;;;;8.63;7.93;;;21.60;99.90;;;;;;5032626;28;20195;-64
2021/09/20 10:12:46;;;;;;;8.00;7.47;;;21.70;99.90;;;;;;5052041;28;20264;-64
2021/09/20 10:15:15;;;;;;;8.97;8.23;;;21.20;99.90;;;;;;5052214;28;20189;-64
2021/09/20 10:17:41;;;;;;;9.00;7.85;;;20.80;99.90;;;;;;5032000;28;20685;-64
2021/09/20 10:20:10;;;;;;;9.52;8.73;;;20.80;99.90;;;;;;5031931;28;20225;-63
2021/09/20 10:22:36;;;;;;;9.68;8.75;;;21.00;99.90;;;;;;5050614;28;20229;-64
2021/09/20 10:25:04;;;;;;;8.38;7.57;;;21.40;99.90;;;;;;5049247;28;20211;-63
2021/09/20 10:27:30;;;;;;;8.30;7.60;;;21.90;99.90;;;;;;5031835;28;20188;-64
2021/09/20 10:30:03;;;;;;;8.48;7.88;;;22.10;99.90;;;;;;5031857;28;20599;-65
2021/09/20 10:32:30;;;;;;;9.45;8.57;;;21.90;99.90;;;;;;5052161;28;20167;-64
2021/09/20 10:35:29;;;;;;;8.32;7.65;;;21.50;99.90;;;;;;5034765;28;20207;-63
2021/09/20 10:37:59;;;;;;;8.88;8.27;;;21.50;99.90;;;;;;5051959;28;20233;-64
2021/09/20 10:40:26;;;;;;;9.02;8.32;;;21.40;99.90;;;;;;5040818;28;20556;-64
2021/09/20 10:42:57;;;;;;;8.50;7.75;;;21.50;99.90;;;;;;5031723;28;20274;-64
2021/09/20 10:45:46;;;;;;;8.38;7.78;;;22.00;99.90;;;;;;5048356;28;20206;-64
2021/09/20 10:48:21;;;;;;;8.55;7.75;;;22.60;99.90;;;;;;5051840;28;20205;-64
2021/09/20 10:50:49;;;;;;;8.00;7.30;;;23.00;99.90;;;;;;5031674;28;20175;-64
2021/09/20 10:53:21;;;;;;;9.45;8.65;;;23.00;99.90;;;;;;5031816;28;20251;-64
2021/09/20 10:56:02;;;;;;;8.60;8.00;;;22.80;99.90;;;;;;5050027;28;20209;-64
2021/09/20 10:58:51;;;;;;;9.05;8.35;;;22.80;99.90;;;;;;5051468;28;20774;-64
2021/09/20 11:01:17;;;;;;;8.35;7.68;;;22.70;99.90;;;;;;5024510;28;20564;-64
2021/09/20 11:03:47;;;;;;;8.80;8.10;;;22.80;99.90;;;;;;5031365;28;20194;-64
2021/09/20 11:06:26;;;;;;;8.95;8.25;;;22.80;99.90;;;;;;5051597;28;20234;-64
2021/09/20 11:08:57;;;;;;;9.77;8.70;;;22.70;99.90;;;;;;5031854;28;20222;-63
2021/09/20 11:11:42;;;;;;;9.60;8.48;;;22.20;99.90;;;;;;5030082;28;20645;-63
2021/09/20 11:14:13;;;;;;;8.88;8.18;;;21.90;99.90;;;;;;5033718;28;20951;-63
2021/09/20 11:16:56;;;;;;;8.73;7.93;;;21.60;99.90;;;;;;5051710;28;20229;-63
2021/09/20 11:19:25;;;;;;;8.00;7.30;;;21.70;99.90;;;;;;5050319;28;20181;-63
2021/09/20 11:22:05;;;;;;;9.43;7.65;;;21.50;99.90;;;;;;5051365;28;20201;-63
2021/09/20 11:24:32;;;;;;;9.43;8.63;;;21.30;99.90;;;;;;5031659;28;20203;-63
2021/09/20 11:26:58;;;;;;;9.30;8.50;;;21.30;99.90;;;;;;5031438;28;20187;-63
2021/09/20 11:29:25;;;;;;;8.73;8.07;;;21.40;99.90;;;;;;5048105;28;20182;-64
2021/09/20 11:31:54;;;;;;;9.20;8.50;;;21.60;99.90;;;;;;5051237;28;20243;-63
2021/09/20 11:34:30;;;;;;;9.07;8.27;;;21.30;99.90;;;;;;5033920;28;20191;-64
2021/09/20 11:37:30;;;;;;;9.47;8.77;;;21.10;99.90;;;;;;5031687;28;20198;-63
2021/09/20 11:40:03;;;;;;;9.87;8.40;;;20.90;99.90;;;;;;5033759;28;20226;-63
2021/09/20 11:42:37;;;;;;;8.90;8.30;;;20.90;99.90;;;;;;5050295;28;20175;-63
2021/09/20 11:45:06;;;;;;;8.98;7.97;;;21.10;99.90;;;;;;5050972;28;20260;-63
2021/09/20 11:47:36;;;;;;;9.60;8.80;;;21.10;99.90;;;;;;5050192;28;20194;-64
2021/09/20 11:50:06;;;;;;;8.93;8.23;;;21.10;99.90;;;;;;5050952;28;20179;-63
2021/09/20 11:52:37;;;;;;;9.10;8.40;;;20.80;99.90;;;;;;5048349;28;20197;-64
2021/09/20 11:55:13;;;;;;;9.43;8.52;;;21.00;99.90;;;;;;5031456;28;20184;-64
2021/09/20 11:57:40;;;;;;;9.10;8.45;;;21.30;99.90;;;;;;5031779;28;20278;-64
2021/09/20 12:00:10;;;;;;;9.27;8.43;;;21.40;99.90;;;;;;5050917;28;20178;-64
2021/09/20 12:02:44;;;;;;;8.77;8.07;;;21.20;99.90;;;;;;5050473;28;20194;-63
2021/09/20 12:05:37;;;;;;;9.67;8.97;;;21.00;99.90;;;;;;5031086;28;20259;-63
2021/09/20 12:08:14;;;;;;;11.50;8.60;;;20.90;99.90;;;;;;5034354;28;20662;-63
2021/09/20 12:10:48;;;;;;;8.90;8.30;;;20.60;99.90;;;;;;5050683;28;20197;-64
2021/09/20 12:13:21;;;;;;;8.90;8.30;;;20.40;99.90;;;;;;5044050;28;20199;-64
2021/09/20 12:15:48;;;;;;;9.90;9.20;;;20.10;99.90;;;;;;5042631;28;20203;-64
2021/09/20 12:18:15;;;;;;;10.50;9.43;;;19.80;99.90;;;;;;5044878;28;20215;-63
2021/09/20 12:20:53;;;;;;;10.03;9.00;;;19.90;99.90;;;;;;5054198;28;20175;-64
2021/09/20 12:23:28;;;;;;;9.80;9.10;;;20.10;99.90;;;;;;5044215;28;20187;-64
2021/09/20 12:25:56;;;;;;;9.40;8.63;;;20.40;99.90;;;;;;5034235;28;20221;-63
2021/09/20 12:28:32;;;;;;;9.00;8.40;;;20.80;99.90;;;;;;5044363;28;20548;-64
2021/09/20 12:31:03;;;;;;;10.07;9.13;;;21.00;99.90;;;;;;5051291;28;20244;-63
2021/09/20 12:33:32;;;;;;;9.85;9.07;;;21.00;99.90;;;;;;5034332;28;20183;-64
2021/09/20 12:35:58;;;;;;;9.00;8.40;;;21.10;99.90;;;;;;5036114;28;20195;-64
2021/09/20 12:38:34;;;;;;;8.35;7.78;;;21.20;99.90;;;;;;5053187;28;20254;-64